Time;durP1;ratioP1;P1;durP2;ratioP2;P2;SDS_P1;SDS_P2;PMS_P1;PMS_P2;Temp;Humidity;BMP_temperature;BMP_pressure;BME280_temperature;BME280_humidity;BME280_pressure;Samples;Min_cycle;Max_cycle;Signal;HPM_P1;HPM_P2
2021/12/19 00:00:51;;;;;;;19.23;10.20;;;;;;;3.29;100.00;101207.66;5106614;28;20909;-77
2021/12/19 00:03:50;;;;;;;20.40;11.32;;;;;;;3.37;100.00;101198.56;5091561;28;20427;-77
2021/12/19 00:09:06;;;;;;;18.60;10.80;;;;;;;3.37;100.00;101226.22;5088616;28;20862;-77
2021/12/19 00:11:34;;;;;;;17.35;10.65;;;;;;;3.53;100.00;101222.63;5091997;28;20973;-77
2021/12/19 00:14:04;;;;;;;19.60;11.18;;;;;;;3.05;100.00;101202.59;5090827;28;20407;-77
2021/12/19 00:16:31;;;;;;;14.55;8.45;;;;;;;2.83;100.00;101199.16;5090389;28;20889;-77
2021/12/19 00:18:59;;;;;;;14.52;8.52;;;;;;;2.91;100.00;101196.41;5087235;28;20437;-77
2021/12/19 00:21:26;;;;;;;15.38;9.00;;;;;;;3.10;100.00;101204.41;5090597;28;20435;-77
2021/12/19 00:23:54;;;;;;;17.80;10.82;;;;;;;3.27;100.00;101215.47;5091794;28;20392;-77
2021/12/19 00:26:21;;;;;;;16.63;9.75;;;;;;;3.22;100.00;101204.56;5074233;28;20430;-77
2021/12/19 00:28:49;;;;;;;19.50;11.25;;;;;;;3.25;100.00;101195.66;5088795;28;20400;-77
2021/12/19 00:31:17;;;;;;;22.17;13.32;;;;;;;3.23;100.00;101189.63;5091465;28;20396;-77
2021/12/19 00:33:45;;;;;;;20.90;12.13;;;;;;;3.36;100.00;101213.53;5091874;28;20446;-77
2021/12/19 00:36:13;;;;;;;20.05;11.07;;;;;;;3.24;100.00;101205.88;5092097;28;20432;-77
2021/12/19 00:38:41;;;;;;;12.55;7.63;;;;;;;3.30;100.00;101198.25;5089420;28;20536;-77
2021/12/19 00:41:09;;;;;;;10.40;6.45;;;;;;;3.40;100.00;101195.97;5091700;28;20396;-77
2021/12/19 00:43:45;;;;;;;9.52;5.85;;;;;;;3.25;100.00;101184.59;5107147;28;20412;-77
2021/12/19 00:46:15;;;;;;;9.68;5.60;;;;;;;3.39;100.00;101199.06;5090326;28;20415;-77
2021/12/19 00:48:51;;;;;;;9.45;5.57;;;;;;;3.26;100.00;101200.03;5088937;28;20388;-77
2021/12/19 00:51:25;;;;;;;9.57;6.18;;;;;;;3.24;100.00;101171.91;5073132;28;20482;-77
2021/12/19 00:53:54;;;;;;;13.05;7.10;;;;;;;3.17;100.00;101177.91;5090172;28;20493;-77
2021/12/19 00:56:25;;;;;;;9.18;5.85;;;;;;;3.30;100.00;101187.19;5090411;28;20478;-77
2021/12/19 00:58:53;;;;;;;7.85;5.30;;;;;;;3.36;100.00;101191.44;5087521;28;20833;-77
2021/12/19 01:01:20;;;;;;;6.43;4.95;;;;;;;3.15;100.00;101163.59;5089312;28;20396;-77
2021/12/19 01:03:48;;;;;;;7.63;5.10;;;;;;;3.13;100.00;101160.38;5090001;28;20408;-77
2021/12/19 01:06:18;;;;;;;6.75;3.97;;;;;;;3.10;100.00;101171.25;5090066;28;20399;-77
2021/12/19 01:08:50;;;;;;;6.43;4.30;;;;;;;3.05;100.00;101158.41;5090127;28;20507;-77
2021/12/19 01:11:18;;;;;;;6.45;4.38;;;;;;;3.11;100.00;101175.63;5091268;28;20438;-77
2021/12/19 01:13:45;;;;;;;6.50;4.05;;;;;;;3.04;100.00;101165.09;5073929;28;20404;-77
2021/12/19 01:16:15;;;;;;;7.82;4.55;;;;;;;3.16;100.00;101176.31;5091156;28;20487;-77
2021/12/19 01:18:44;;;;;;;6.47;4.10;;;;;;;3.09;100.00;101164.13;5089672;28;20396;-77
2021/12/19 01:21:12;;;;;;;4.95;3.50;;;;;;;3.32;100.00;101174.69;5091109;28;20409;-77
2021/12/19 01:23:39;;;;;;;5.75;3.88;;;;;;;3.16;100.00;101158.91;5090237;28;20882;-77
2021/12/19 01:26:09;;;;;;;7.33;3.83;;;;;;;3.16;100.00;101158.91;5093968;28;20388;-77
2021/12/19 01:28:42;;;;;;;4.80;3.75;;;;;;;3.09;100.00;101156.63;5095185;28;20873;-77
2021/12/19 01:31:10;;;;;;;5.55;3.67;;;;;;;3.06;100.00;101153.72;5094587;28;20403;-77
2021/12/19 01:33:40;;;;;;;5.15;3.50;;;;;;;3.13;100.00;101156.78;5093624;28;20401;-77
2021/12/19 01:36:08;;;;;;;5.05;3.60;;;;;;;3.11;100.00;101134.19;5094888;28;20388;-77
2021/12/19 01:38:36;;;;;;;4.93;3.53;;;;;;;2.93;100.00;101154.66;5094341;28;20413;-77
2021/12/19 01:41:03;;;;;;;5.03;3.70;;;;;;;2.75;100.00;101136.44;5093307;28;20540;-78
2021/12/19 01:43:31;;;;;;;4.95;3.65;;;;;;;2.99;100.00;101156.13;5094702;28;20435;-77
2021/12/19 01:45:59;;;;;;;4.70;3.50;;;;;;;2.91;100.00;101134.81;5094491;28;20407;-77
2021/12/19 01:48:29;;;;;;;5.35;3.63;;;;;;;2.94;100.00;101131.44;5094460;28;20399;-77
2021/12/19 01:50:59;;;;;;;4.70;3.30;;;;;;;3.04;100.00;101133.88;5094646;28;20773;-77
2021/12/19 01:53:29;;;;;;;5.63;3.35;;;;;;;2.71;100.00;101140.97;5094801;28;20420;-77
2021/12/19 01:55:57;;;;;;;5.90;3.60;;;;;;;2.59;100.00;101138.81;5094523;28;20871;-77
2021/12/19 01:58:25;;;;;;;4.18;3.00;;;;;;;2.73;100.00;101138.69;5085585;28;20455;-77
2021/12/19 02:00:55;;;;;;;5.45;3.40;;;;;;;2.82;100.00;101139.53;5092671;28;20401;-77
2021/12/19 02:03:23;;;;;;;4.40;3.05;;;;;;;2.85;100.00;101147.97;5094668;28;20414;-77
2021/12/19 02:05:51;;;;;;;4.20;2.83;;;;;;;2.82;100.00;101129.28;5094325;28;20500;-77
2021/12/19 02:08:19;;;;;;;3.90;2.65;;;;;;;2.80;100.00;101126.03;5093075;28;20407;-77
2021/12/19 02:10:50;;;;;;;5.73;3.03;;;;;;;2.92;100.00;101125.41;5092820;28;20454;-77
2021/12/19 02:13:17;;;;;;;4.05;3.00;;;;;;;2.90;100.00;101134.03;5093932;28;20388;-77
2021/12/19 02:15:46;;;;;;;4.20;2.97;;;;;;;2.95;100.00;101128.34;5093991;28;20439;-77
2021/12/19 02:18:19;;;;;;;4.32;3.00;;;;;;;2.89;100.00;101131.59;5093784;28;20436;-77
2021/12/19 02:20:51;;;;;;;4.47;3.10;;;;;;;2.86;100.00;101116.47;5092785;28;20458;-77
2021/12/19 02:23:22;;;;;;;3.20;2.57;;;;;;;2.68;100.00;101125.06;5093984;28;20404;-77
2021/12/19 02:25:50;;;;;;;4.05;2.70;;;;;;;2.73;100.00;101122.13;5093924;28;20401;-77
2021/12/19 02:28:19;;;;;;;4.53;2.90;;;;;;;2.87;100.00;101145.72;5093614;28;20393;-77
2021/12/19 02:30:48;;;;;;;3.75;2.78;;;;;;;2.78;100.00;101127.50;5092450;28;20454;-77
2021/12/19 02:33:19;;;;;;;4.35;2.90;;;;;;;2.85;100.00;101127.81;5092485;28;20450;-77
2021/12/19 02:36:03;;;;;;;3.83;2.87;;;;;;;2.79;100.00;101129.13;5092386;28;20979;-77
2021/12/19 02:49:24;;;;;;;4.28;2.47;;;;;;;2.72;100.00;101115.81;5092588;28;20416;-76
2021/12/19 02:51:53;;;;;;;4.05;2.50;;;;;;;2.88;100.00;101116.97;5091494;28;20560;-76
2021/12/19 02:54:24;;;;;;;3.17;2.30;;;;;;;2.76;100.00;101116.78;5092922;28;20420;-76
2021/12/19 02:56:52;;;;;;;3.17;2.40;;;;;;;2.81;100.00;101126.84;5092622;28;20427;-77
2021/12/19 02:59:19;;;;;;;3.25;2.20;;;;;;;2.73;100.00;101127.66;5092237;28;20712;-77
2021/12/19 03:01:48;;;;;;;3.58;2.10;;;;;;;2.45;100.00;101109.75;5091698;28;20435;-77
2021/12/19 03:04:16;;;;;;;4.20;2.58;;;;;;;2.71;100.00;101119.69;5093082;28;20392;-77
2021/12/19 03:06:47;;;;;;;3.45;2.20;;;;;;;2.69;100.00;101107.34;5093182;28;20460;-77
2021/12/19 03:10:17;;;;;;;3.25;2.05;;;;;;;2.72;100.00;101090.13;5093082;28;20384;-77
2021/12/19 03:18:08;;;;;;;3.20;2.30;;;;;;;2.90;100.00;101100.06;5010541;28;20880;-77
2021/12/19 03:20:37;;;;;;;3.97;2.22;;;;;;;2.89;100.00;101096.47;5006401;28;20506;-77
2021/12/19 03:23:08;;;;;;;2.85;2.20;;;;;;;2.69;100.00;101077.81;4994494;28;20558;-77
2021/12/19 03:25:41;;;;;;;2.72;1.83;;;;;;;2.75;100.00;101081.22;5010529;28;20395;-77
2021/12/19 03:28:12;;;;;;;5.10;1.95;;;;;;;2.58;100.00;101064.63;5010523;28;20407;-77
2021/12/19 03:30:41;;;;;;;3.67;1.85;;;;;;;2.79;100.00;101076.66;4994439;28;20444;-77
2021/12/19 03:33:10;;;;;;;4.00;2.40;;;;;;;2.88;100.00;101080.22;5010584;28;20457;-77
2021/12/19 03:35:39;;;;;;;3.17;2.20;;;;;;;2.80;100.00;101068.06;5010557;28;20400;-77
2021/12/19 03:38:10;;;;;;;3.72;1.90;;;;;;;2.72;100.00;101066.13;4993542;28;20423;-77
2021/12/19 03:40:43;;;;;;;3.03;1.58;;;;;;;2.65;100.00;101059.44;5010410;28;20473;-77
2021/12/19 03:43:16;;;;;;;3.47;1.80;;;;;;;2.66;100.00;101061.06;5010484;28;20827;-77
2021/12/19 03:45:45;;;;;;;4.68;1.90;;;;;;;2.56;100.00;101055.88;5010549;28;20496;-77
2021/12/19 03:48:15;;;;;;;4.20;1.80;;;;;;;2.63;100.00;101058.94;5014864;28;20452;-77
2021/12/19 03:50:47;;;;;;;4.25;1.80;;;;;;;2.60;100.00;101043.88;5092126;28;20790;-77
2021/12/19 03:53:17;;;;;;;2.17;1.70;;;;;;;2.88;100.00;101066.44;5092545;28;20910;-77
2021/12/19 03:55:48;;;;;;;2.28;1.50;;;;;;;2.71;100.00;101058.16;5092219;28;20536;-77
2021/12/19 03:58:15;;;;;;;2.50;1.77;;;;;;;2.68;100.00;101059.59;5092412;28;20439;-77
2021/12/19 04:00:43;;;;;;;2.13;1.70;;;;;;;2.79;100.00;101043.53;5092041;28;20410;-77
2021/12/19 04:03:17;;;;;;;2.37;1.70;;;;;;;2.77;100.00;101035.56;5092411;28;20837;-77
2021/12/19 04:05:49;;;;;;;2.97;2.20;;;;;;;2.71;100.00;101036.88;5091278;28;20482;-77
2021/12/19 04:08:18;;;;;;;2.38;1.70;;;;;;;2.72;100.00;101045.97;5092483;28;20454;-77
2021/12/19 04:10:47;;;;;;;2.17;1.52;;;;;;;2.55;100.00;101032.97;5092201;28;20488;-77
2021/12/19 04:13:15;;;;;;;2.10;1.50;;;;;;;2.49;100.00;101027.91;5090628;28;20400;-77
2021/12/19 04:15:43;;;;;;;2.55;1.60;;;;;;;2.54;100.00;101042.41;5092079;28;20431;-77
2021/12/19 04:18:11;;;;;;;2.35;1.73;;;;;;;2.54;100.00;101047.91;5091619;28;20392;-77
2021/12/19 04:20:38;;;;;;;2.00;1.50;;;;;;;2.49;100.00;101034.25;5091889;28;20396;-77
2021/12/19 04:23:12;;;;;;;2.28;1.70;;;;;;;2.53;100.00;101051.00;5091330;28;20742;-77
2021/12/19 04:25:39;;;;;;;2.90;1.87;;;;;;;2.40;100.00;101029.84;5091761;28;20452;-77
2021/12/19 04:28:07;;;;;;;5.43;2.17;;;;;;;2.39;100.00;101025.47;5091125;28;20692;-77
2021/12/19 04:30:34;;;;;;;2.75;1.60;;;;;;;2.31;100.00;101021.56;5090705;28;20724;-77
2021/12/19 04:33:08;;;;;;;1.50;1.13;;;;;;;2.32;100.00;101022.41;5092101;28;20400;-77
2021/12/19 04:35:39;;;;;;;2.00;1.30;;;;;;;2.35;100.00;101027.28;5091840;28;20435;-77
2021/12/19 04:39:01;;;;;;;2.30;1.58;;;;;;;2.35;100.00;101019.78;5071766;28;20444;-77
2021/12/19 04:42:30;;;;;;;2.45;1.50;;;;;;;2.44;100.00;101030.84;5088601;28;20412;-77
2021/12/19 04:57:57;;;;;;;1.27;0.98;;;;;;;1.97;100.00;101023.44;5078311;28;20406;-77
2021/12/19 05:00:40;;;;;;;1.60;0.90;;;;;;;1.83;100.00;101018.84;5093528;28;20426;-77
2021/12/19 05:03:25;;;;;;;2.20;1.00;;;;;;;2.27;100.00;101014.25;5095550;28;20440;-77
2021/12/19 05:14:17;;;;;;;2.50;1.20;;;;;;;2.29;100.00;100995.47;5094146;28;20805;-77
2021/12/19 05:16:47;;;;;;;1.40;1.00;;;;;;;2.36;100.00;101002.13;5093784;28;20894;-77
2021/12/19 05:19:28;;;;;;;1.58;1.00;;;;;;;2.36;100.00;100999.38;5095034;28;20400;-77
2021/12/19 05:22:02;;;;;;;2.92;1.00;;;;;;;2.36;100.00;100993.84;5095007;28;20481;-77
2021/12/19 05:25:01;;;;;;;1.33;0.88;;;;;;;2.51;100.00;101017.38;5095653;28;20508;-77
2021/12/19 05:27:28;;;;;;;1.50;1.00;;;;;;;2.38;100.00;100991.56;5095236;28;20392;-77
2021/12/19 05:29:56;;;;;;;1.65;1.10;;;;;;;2.33;100.00;100993.66;5094885;28;20386;-77
2021/12/19 05:32:23;;;;;;;2.22;1.25;;;;;;;2.22;100.00;100984.88;5095255;28;20401;-77
2021/12/19 05:34:53;;;;;;;2.30;1.10;;;;;;;2.27;100.00;100986.69;5094964;28;20449;-76
2021/12/19 05:45:39;;;;;;;0.98;0.70;;;;;;;2.28;100.00;100993.81;5094875;28;20435;-77
2021/12/19 05:48:06;;;;;;;0.80;0.70;;;;;;;2.33;100.00;101008.28;5093901;28;20400;-77
2021/12/19 05:50:39;;;;;;;1.20;0.63;;;;;;;2.24;100.00;100987.31;5093348;28;20475;-77
2021/12/19 05:53:11;;;;;;;0.80;0.70;;;;;;;2.25;100.00;100994.47;5094658;28;20487;-77
2021/12/19 05:55:39;;;;;;;0.70;0.70;;;;;;;2.18;100.00;100981.13;5093384;28;20399;-77
2021/12/19 05:58:06;;;;;;;0.63;0.60;;;;;;;2.22;100.00;100984.88;5093309;28;20394;-77
2021/12/19 06:00:34;;;;;;;0.90;0.70;;;;;;;2.15;100.00;100972.72;5094430;28;20738;-77
2021/12/19 06:03:03;;;;;;;0.65;0.50;;;;;;;2.23;100.00;100974.69;5094555;28;20395;-77
2021/12/19 06:05:30;;;;;;;0.65;0.60;;;;;;;2.29;100.00;100984.41;5094293;28;20412;-77
2021/12/19 06:07:58;;;;;;;0.90;0.60;;;;;;;2.35;100.00;100975.66;5075926;28;20394;-77
2021/12/19 06:10:28;;;;;;;2.20;0.60;;;;;;;2.23;100.00;100971.91;5074274;28;20378;-76
2021/12/19 06:12:57;;;;;;;1.58;0.70;;;;;;;2.21;100.00;100977.75;5090219;28;20446;-77
2021/12/19 06:15:25;;;;;;;0.70;0.63;;;;;;;2.22;100.00;100975.78;5094471;28;20408;-76
2021/12/19 06:17:53;;;;;;;4.97;0.70;;;;;;;2.24;100.00;100976.28;5094020;28;20388;-77
2021/12/19 06:20:21;;;;;;;0.60;0.60;;;;;;;2.17;100.00;100967.66;5092681;28;20877;-77
2021/12/19 06:22:49;;;;;;;0.47;0.47;;;;;;;2.11;100.00;100957.91;5094121;28;20891;-77
2021/12/19 06:25:16;;;;;;;1.55;1.00;;;;;;;2.24;100.00;100981.81;5094016;28;20420;-77
2021/12/19 06:27:43;;;;;;;0.82;0.70;;;;;;;2.18;100.00;100961.03;5093847;28;20414;-77
2021/12/19 06:30:11;;;;;;;0.65;0.50;;;;;;;2.22;100.00;100967.53;5093085;28;20464;-77
2021/12/19 06:32:39;;;;;;;0.70;0.50;;;;;;;2.16;100.00;100957.78;5093911;28;20739;-77
2021/12/19 06:35:12;;;;;;;0.50;0.50;;;;;;;2.24;100.00;100968.03;5093948;28;20809;-77
2021/12/19 06:37:39;;;;;;;0.50;0.50;;;;;;;2.27;100.00;100942.53;5093577;28;20404;-77
2021/12/19 06:40:12;;;;;;;1.13;0.55;;;;;;;2.29;100.00;100946.59;5093583;28;20399;-77
2021/12/19 06:42:40;;;;;;;0.70;0.50;;;;;;;2.07;100.00;100943.16;5092667;28;20458;-78
2021/12/19 06:45:08;;;;;;;0.60;0.60;;;;;;;2.05;100.00;100945.41;5093766;28;20398;-79
2021/12/19 06:47:37;;;;;;;0.73;0.60;;;;;;;2.21;100.00;100966.72;5093358;28;20794;-77
2021/12/19 06:50:05;;;;;;;0.75;0.60;;;;;;;2.15;100.00;100956.16;5090841;28;20411;-78
2021/12/19 06:52:33;;;;;;;1.80;0.60;;;;;;;2.10;100.00;100970.91;5090576;28;20434;-78
2021/12/19 06:55:00;;;;;;;0.50;0.50;;;;;;;2.13;100.00;100964.75;5093403;28;20395;-83
2021/12/19 06:57:28;;;;;;;0.68;0.60;;;;;;;2.06;100.00;100963.59;5092794;28;20408;-78
2021/12/19 06:59:55;;;;;;;0.80;0.60;;;;;;;2.09;100.00;100957.44;5090913;28;20423;-78
2021/12/19 07:02:23;;;;;;;0.80;0.60;;;;;;;2.29;100.00;100978.91;5093130;28;20396;-79
2021/12/19 07:04:50;;;;;;;0.50;0.50;;;;;;;2.11;100.00;100952.41;5092208;28;20472;-78
2021/12/19 07:07:20;;;;;;;0.45;0.45;;;;;;;2.27;100.00;100959.09;5093027;28;20431;-77
2021/12/19 07:09:47;;;;;;;1.30;0.60;;;;;;;2.18;100.00;100955.50;5092110;28;20388;-77
2021/12/19 07:12:14;;;;;;;1.40;0.50;;;;;;;2.00;100.00;100953.88;5093152;28;20407;-77
2021/12/19 07:14:43;;;;;;;1.20;0.70;;;;;;;1.96;100.00;100950.09;5093047;28;20401;-78
2021/12/19 07:17:11;;;;;;;0.50;0.50;;;;;;;2.07;100.00;100948.69;5092881;28;20449;-78
2021/12/19 07:19:38;;;;;;;0.77;0.68;;;;;;;2.06;100.00;100942.34;5091755;28;20401;-78
2021/12/19 07:22:06;;;;;;;0.60;0.60;;;;;;;1.98;100.00;100953.38;5092475;28;20802;-77
2021/12/19 07:24:33;;;;;;;1.00;0.50;;;;;;;1.82;100.00;100945.56;5092687;28;20425;-77
2021/12/19 07:27:03;;;;;;;1.10;0.60;;;;;;;1.57;100.00;100940.78;5092879;28;20432;-78
2021/12/19 07:29:31;;;;;;;1.35;0.60;;;;;;;1.66;100.00;100949.88;5092792;28;20404;-77
2021/12/19 07:31:58;;;;;;;0.80;0.60;;;;;;;1.86;100.00;100932.75;5093073;28;20416;-77
2021/12/19 07:34:31;;;;;;;0.65;0.65;;;;;;;1.95;100.00;100937.47;5092472;28;20398;-77
2021/12/19 07:37:00;;;;;;;0.80;0.70;;;;;;;1.94;100.00;100935.84;5092676;28;20468;-77
2021/12/19 07:42:04;;;;;;;1.07;0.70;;;;;;;1.95;100.00;100935.53;5092505;28;20528;-77
2021/12/19 07:45:00;;;;;;;0.80;0.70;;;;;;;2.09;100.00;100949.97;5091470;28;20499;-78
2021/12/19 07:47:27;;;;;;;2.00;0.95;;;;;;;1.98;100.00;100932.13;5092020;28;20525;-78
2021/12/19 07:49:56;;;;;;;3.70;0.97;;;;;;;1.94;100.00;100927.59;5092383;28;20436;-78
2021/12/19 07:52:24;;;;;;;0.93;0.73;;;;;;;1.86;100.00;100932.75;5074162;28;20762;-77
2021/12/19 07:54:53;;;;;;;3.00;0.82;;;;;;;1.82;100.00;100925.44;5081417;28;20793;-77
2021/12/19 07:57:20;;;;;;;1.60;0.73;;;;;;;1.77;100.00;100922.84;5092246;28;20952;-77
2021/12/19 07:59:48;;;;;;;0.85;0.68;;;;;;;1.99;100.00;100947.53;5092368;28;20389;-78
2021/12/19 08:02:15;;;;;;;2.45;0.90;;;;;;;2.07;100.00;100935.72;5090711;28;20540;-76
2021/12/19 08:04:47;;;;;;;2.80;0.80;;;;;;;2.08;100.00;100936.50;5085733;28;20455;-76
2021/12/19 08:07:17;;;;;;;1.50;0.90;;;;;;;1.94;100.00;100928.38;5076647;28;20409;-76
2021/12/19 08:12:36;;;;;;;1.20;0.90;;;;;;;2.09;100.00;100958.25;4999522;28;20438;-75
2021/12/19 08:15:06;;;;;;;1.30;1.00;;;;;;;2.05;100.00;100939.91;4998090;28;20406;-76
2021/12/19 08:17:34;;;;;;;4.60;1.70;;;;;;;2.03;100.00;100937.47;5005356;28;21153;-76
2021/12/19 08:20:04;;;;;;;4.63;3.80;;;;;;;2.13;100.00;100952.91;4998125;28;20436;-77
2021/12/19 08:22:33;;;;;;;5.68;4.60;;;;;;;2.02;100.00;100943.31;5004134;28;20414;-77
2021/12/19 08:25:01;;;;;;;3.75;2.63;;;;;;;1.96;100.00;100953.69;4993391;28;20426;-77
2021/12/19 08:27:28;;;;;;;11.25;9.70;;;;;;;1.96;100.00;100950.09;4993551;28;20412;-77
2021/12/19 08:29:55;;;;;;;14.52;12.98;;;;;;;2.00;100.00;100953.88;5009876;28;20522;-77
2021/12/19 08:32:23;;;;;;;5.20;3.20;;;;;;;1.96;100.00;100942.66;5009427;28;20909;-77
2021/12/19 08:34:51;;;;;;;2.88;1.98;;;;;;;1.96;100.00;100947.34;5012452;28;20426;-78
2021/12/19 08:37:19;;;;;;;5.47;3.42;;;;;;;2.06;100.00;100949.81;5013294;28;20410;-78
2021/12/19 08:39:47;;;;;;;5.28;3.85;;;;;;;2.08;100.00;100944.78;5013857;28;20398;-78
2021/12/19 08:42:14;;;;;;;3.95;1.90;;;;;;;2.10;100.00;100937.81;5013694;28;20501;-78
2021/12/19 08:44:44;;;;;;;2.63;1.40;;;;;;;2.24;100.00;100951.47;4997416;28;20438;-78
2021/12/19 08:47:12;;;;;;;4.10;1.95;;;;;;;2.28;100.00;100944.16;4997374;28;20419;-78
2021/12/19 08:49:40;;;;;;;5.18;3.13;;;;;;;2.39;100.00;100953.75;5055767;28;20514;-79
2021/12/19 08:52:09;;;;;;;5.03;2.00;;;;;;;2.26;100.00;100954.72;5078047;28;20400;-80
2021/12/19 08:54:38;;;;;;;4.27;1.87;;;;;;;1.98;100.00;100956.94;5096644;28;20383;-79
2021/12/19 08:57:05;;;;;;;3.40;2.10;;;;;;;1.83;100.00;100943.63;5088065;28;20484;-80
2021/12/19 08:59:32;;;;;;;2.58;1.20;;;;;;;2.13;100.00;100952.91;5091690;28;20504;-79
2021/12/19 09:02:01;;;;;;;3.70;2.05;;;;;;;2.29;100.00;100951.31;5090509;28;20860;-80
2021/12/19 09:04:30;;;;;;;10.02;5.65;;;;;;;2.44;100.00;100959.13;5069656;28;20432;-80
2021/12/19 09:06:59;;;;;;;6.22;3.83;;;;;;;2.49;100.00;100958.94;5071792;28;20436;-80
2021/12/19 09:09:28;;;;;;;7.25;4.20;;;;;;;2.54;100.00;100961.53;5090880;28;20480;-80
2021/12/19 09:11:56;;;;;;;8.48;3.95;;;;;;;2.58;100.00;100959.75;5071208;28;20435;-79
2021/12/19 09:14:23;;;;;;;85.93;6.70;;;;;;;2.19;100.00;100949.69;5085031;28;20405;-80
2021/12/19 09:16:51;;;;;;;7.75;5.88;;;;;;;2.20;100.00;100954.03;5087771;28;20416;-82
2021/12/19 09:19:21;;;;;;;12.93;11.17;;;;;;;2.31;100.00;100949.84;5089683;28;20926;-78
2021/12/19 09:21:49;;;;;;;5.32;3.60;;;;;;;2.44;100.00;100953.59;5087772;28;20475;-78
2021/12/19 09:24:16;;;;;;;8.38;4.60;;;;;;;2.47;100.00;100947.44;5086255;28;20446;-78
2021/12/19 09:26:45;;;;;;;7.00;3.60;;;;;;;2.57;100.00;100958.13;5084825;28;21099;-78
2021/12/19 09:29:12;;;;;;;7.20;4.43;;;;;;;2.58;100.00;100960.56;5083113;28;20412;-79
2021/12/19 09:31:41;;;;;;;9.95;5.20;;;;;;;2.63;100.00;100956.84;5093630;28;20390;-79
2021/12/19 09:34:09;;;;;;;8.32;4.13;;;;;;;2.62;100.00;100949.69;5090258;28;20428;-77
2021/12/19 09:36:38;;;;;;;3.63;1.85;;;;;;;2.85;100.00;100959.41;5086975;28;20392;-77
2021/12/19 09:39:05;;;;;;;6.57;3.08;;;;;;;2.94;100.00;100952.72;5082466;28;20415;-78
2021/12/19 09:41:42;;;;;;;6.43;3.90;;;;;;;2.90;100.00;100953.72;5083719;28;20495;-78
2021/12/19 09:44:14;;;;;;;6.05;3.40;;;;;;;2.96;100.00;100957.94;5086655;28;20463;-80
2021/12/19 09:46:43;;;;;;;4.15;2.35;;;;;;;2.87;100.00;100943.31;5072459;28;21008;-81
2021/12/19 09:49:13;;;;;;;4.57;2.70;;;;;;;2.78;100.00;100937.81;5090690;28;20396;-80
2021/12/19 09:51:42;;;;;;;6.47;3.35;;;;;;;2.72;100.00;100944.66;5077540;28;20428;-79
2021/12/19 09:54:10;;;;;;;5.68;4.10;;;;;;;2.85;100.00;100951.09;5078702;28;20398;-78
2021/12/19 09:56:39;;;;;;;6.43;3.25;;;;;;;2.79;100.00;100939.44;5089051;28;20384;-80
2021/12/19 09:59:13;;;;;;;5.18;2.70;;;;;;;2.91;100.00;100947.03;5084921;28;20441;-80
2021/12/19 10:01:41;;;;;;;4.20;1.90;;;;;;;2.86;100.00;100933.44;5088963;28;20451;-81
2021/12/19 10:04:42;;;;;;;4.67;2.27;;;;;;;2.89;100.00;100946.56;5092051;28;20397;-80
2021/12/19 10:07:15;;;;;;;6.47;2.73;;;;;;;3.12;100.00;100936.94;5067935;28;20458;-75
2021/12/19 10:09:55;;;;;;;4.97;3.65;;;;;;;2.83;100.00;100925.81;5088330;28;20407;-76
2021/12/19 10:15:12;;;;;;;7.57;4.45;;;;;;;2.44;100.00;100948.06;5090355;28;20424;-75
2021/12/19 10:17:41;;;;;;;7.18;4.13;;;;;;;2.80;100.00;100940.25;5086723;28;20423;-74
2021/12/19 10:20:10;;;;;;;6.88;4.38;;;;;;;2.96;100.00;100933.06;5088438;28;20425;-75
2021/12/19 10:22:48;;;;;;;7.22;5.25;;;;;;;3.09;100.00;100937.59;5085500;28;20396;-75
2021/12/19 10:25:24;;;;;;;8.70;5.40;;;;;;;3.19;100.00;100915.97;5089073;28;20484;-75
2021/12/19 10:27:57;;;;;;;8.37;6.20;;;;;;;3.38;100.00;100934.88;5089164;28;20504;-76
2021/12/19 10:30:29;;;;;;;7.85;6.07;;;;;;;3.47;100.00;100938.44;5100520;28;20394;-75
2021/12/19 10:33:08;;;;;;;6.80;4.90;;;;;;;3.42;100.00;100927.56;5089023;28;20449;-75
2021/12/19 10:35:39;;;;;;;3.10;2.28;;;;;;;3.45;100.00;100919.41;5089960;28;20434;-75
2021/12/19 10:38:28;;;;;;;4.40;3.30;;;;;;;3.69;100.00;100929.88;5089382;28;20431;-76
2021/12/19 10:41:00;;;;;;;11.93;6.53;;;;;;;3.43;100.00;100932.78;5076199;28;20518;-78
2021/12/19 10:43:31;;;;;;;12.90;7.05;;;;;;;3.47;100.00;100928.19;5087610;28;20388;-75
2021/12/19 10:46:04;;;;;;;7.25;4.60;;;;;;;3.29;100.00;100932.16;5087950;28;20392;-75
2021/12/19 10:48:41;;;;;;;4.35;3.00;;;;;;;3.77;100.00;100929.03;5090930;28;20417;-76
2021/12/19 10:51:17;;;;;;;6.40;4.20;;;;;;;4.16;100.00;100934.16;5092212;28;20407;-75
2021/12/19 10:53:52;;;;;;;5.97;4.28;;;;;;;4.35;100.00;100925.38;5092439;28;20396;-76
2021/12/19 10:56:24;;;;;;;4.93;3.50;;;;;;;4.51;100.00;100913.38;5091915;28;20442;-76
2021/12/19 10:58:56;;;;;;;5.65;3.88;;;;;;;4.67;100.00;100919.91;5091551;28;20428;-76
2021/12/19 11:01:41;;;;;;;17.60;3.13;;;;;;;3.98;100.00;100909.72;5092039;28;20437;-76
2021/12/19 11:04:16;;;;;;;4.50;2.70;;;;;;;4.49;100.00;100903.78;5090496;28;20404;-75
2021/12/19 11:06:46;;;;;;;3.67;2.67;;;;;;;4.72;100.00;100894.78;5090322;28;20404;-77
2021/12/19 11:09:13;;;;;;;3.50;2.40;;;;;;;4.97;100.00;100915.84;5091393;28;20407;-76
2021/12/19 11:11:52;;;;;;;3.17;2.45;;;;;;;5.03;100.00;100908.13;5086892;28;20390;-76
2021/12/19 11:14:30;;;;;;;3.43;2.33;;;;;;;5.15;100.00;100911.72;5089519;28;20571;-77
2021/12/19 11:17:07;;;;;;;3.83;2.30;;;;;;;5.17;100.00;100887.25;5093166;28;20399;-77
2021/12/19 11:19:50;;;;;;;4.93;2.92;;;;;;;5.16;100.00;100896.75;5093885;28;20472;-76
2021/12/19 11:22:45;;;;;;;4.70;2.67;;;;;;;5.32;100.00;100897.69;5092990;28;20407;-76
2021/12/19 11:25:40;;;;;;;4.63;2.60;;;;;;;5.46;100.00;100889.84;5090120;28;20400;-76
2021/12/19 11:28:17;;;;;;;4.97;2.63;;;;;;;5.52;100.00;100887.66;5091334;28;20389;-76
2021/12/19 11:30:45;;;;;;;5.32;2.63;;;;;;;5.57;100.00;100879.88;5092773;28;20800;-77
2021/12/19 11:33:29;;;;;;;5.82;2.55;;;;;;;5.70;100.00;100896.53;5091691;28;20739;-76
2021/12/19 11:36:04;;;;;;;5.63;2.67;;;;;;;5.70;100.00;100877.94;5074213;28;20451;-75
2021/12/19 11:38:32;;;;;;;4.10;2.58;;;;;;;5.83;100.00;100882.31;5083134;28;20410;-76
2021/12/19 11:41:10;;;;;;;4.32;2.55;;;;;;;5.99;100.00;100874.09;5072613;28;20408;-75
2021/12/19 11:43:40;;;;;;;3.55;2.10;;;;;;;6.03;100.00;100878.59;5074795;28;20396;-76
2021/12/19 11:46:17;;;;;;;4.65;2.10;;;;;;;5.67;100.00;100861.97;5075044;28;20411;-74
2021/12/19 11:48:45;;;;;;;5.60;2.30;;;;;;;5.68;100.00;100868.34;5077290;28;20599;-75
2021/12/19 11:51:20;;;;;;;6.47;2.30;;;;;;;5.58;100.00;100864.88;5074593;28;20402;-78
2021/12/19 11:53:51;;;;;;;5.60;2.30;;;;;;;5.68;100.00;100873.91;5075360;28;20822;-78
2021/12/19 11:56:19;;;;;;;3.80;1.95;;;;;;;5.86;100.00;100865.00;5084061;28;20388;-78
2021/12/19 11:58:51;;;;;;;9.70;3.30;;;;;;;6.01;100.00;100874.56;5084234;28;20436;-78
2021/12/19 12:01:30;;;;;;;13.10;3.80;;;;;;;5.71;100.00;100868.44;5079578;28;20434;-78
2021/12/19 12:04:11;;;;;;;13.93;4.00;;;;;;;5.63;100.00;100872.94;5075698;28;20396;-78
2021/12/19 12:06:42;;;;;;;8.95;3.90;;;;;;;5.59;100.00;100865.69;5083916;28;20442;-78
2021/12/19 12:09:15;;;;;;;15.77;4.30;;;;;;;5.59;100.00;100885.91;5087395;28;20794;-77
2021/12/19 12:12:03;;;;;;;21.07;6.07;;;;;;;5.37;100.00;100883.59;5103739;28;20377;-78
2021/12/19 12:14:35;;;;;;;18.48;4.93;;;;;;;5.27;100.00;100884.03;5103750;28;20879;-79
2021/12/19 12:17:08;;;;;;;22.77;5.80;;;;;;;5.50;100.00;100884.41;5086920;28;20399;-77
2021/12/19 12:19:50;;;;;;;23.35;6.47;;;;;;;5.62;100.00;100876.06;5086592;28;20384;-79
2021/12/19 12:27:41;;;;;;;22.50;7.38;;;;;;;5.90;100.00;100876.22;5068062;28;21048;-77
2021/12/19 12:30:14;;;;;;;21.20;6.95;;;;;;;6.19;100.00;100867.59;5068157;28;20390;-79
2021/12/19 12:32:45;;;;;;;16.38;7.55;;;;;;;6.11;100.00;100869.34;5085020;28;20393;-77
2021/12/19 12:35:15;;;;;;;33.15;8.07;;;;;;;6.20;100.00;100871.97;5068046;28;20390;-78
2021/12/19 12:37:47;;;;;;;26.58;8.13;;;;;;;5.94;100.00;100872.38;5081896;28;20403;-77
2021/12/19 12:40:29;;;;;;;27.10;8.35;;;;;;;5.91;100.00;100863.97;5084365;28;20376;-77
2021/12/19 12:43:02;;;;;;;26.87;9.07;;;;;;;5.68;100.00;100858.03;5086592;28;21026;-77
2021/12/19 12:45:30;;;;;;;28.27;8.98;;;;;;;5.60;100.00;100868.09;5087916;28;20407;-77